createdAt,value
2018-12-26T00:00:27.623Z,5.20
2018-12-26T00:03:08.631Z,5.20
2018-12-26T00:05:49.506Z,5.20
2018-12-26T00:08:30.821Z,5.20
2018-12-26T00:11:12.242Z,5.20
2018-12-26T00:13:52.820Z,5.20
2018-12-26T00:16:33.851Z,5.30
2018-12-26T00:19:15.223Z,5.30
2018-12-26T00:21:56.114Z,5.30
2018-12-26T00:24:37.204Z,5.30
2018-12-26T00:27:18.660Z,5.30
2018-12-26T00:30:00.221Z,5.30
2018-12-26T00:32:41.857Z,5.30
2018-12-26T00:35:22.556Z,5.40
2018-12-26T00:38:03.260Z,5.30
2018-12-26T00:40:44.280Z,5.30
2018-12-26T00:43:25.188Z,5.40
2018-12-26T00:46:06.190Z,5.30
2018-12-26T00:48:47.148Z,5.30
2018-12-26T00:51:28.120Z,5.40
2018-12-26T00:54:09.508Z,5.40
2018-12-26T00:56:50.181Z,5.40
2018-12-26T00:59:31.592Z,5.40
2018-12-26T01:02:12.188Z,5.40
2018-12-26T01:04:53.160Z,5.50
2018-12-26T01:07:35.045Z,5.40
2018-12-26T01:10:16.142Z,5.40
2018-12-26T01:12:57.239Z,5.40
2018-12-26T01:15:38.752Z,5.40
2018-12-26T01:18:19.420Z,5.40
2018-12-26T01:21:00.592Z,5.50
2018-12-26T01:23:41.196Z,5.40
2018-12-26T01:26:21.762Z,5.50
2018-12-26T01:29:02.798Z,5.50
2018-12-26T01:31:43.868Z,5.50
2018-12-26T01:34:24.888Z,5.50
2018-12-26T01:37:05.848Z,5.50
2018-12-26T01:39:46.314Z,5.50
2018-12-26T01:42:27.218Z,5.40
2018-12-26T01:47:50.947Z,5.40
2018-12-26T01:50:31.440Z,5.40
2018-12-26T01:53:12.053Z,5.40
2018-12-26T01:55:52.902Z,5.40
2018-12-26T01:58:33.865Z,5.40
2018-12-26T02:01:14.547Z,5.40
2018-12-26T02:03:55.266Z,5.40
2018-12-26T02:06:36.541Z,5.50
2018-12-26T02:09:17.510Z,5.40
2018-12-26T02:11:58.465Z,5.40
2018-12-26T02:14:38.970Z,5.40
2018-12-26T02:17:20.576Z,5.40
2018-12-26T02:20:02.062Z,5.40
2018-12-26T02:22:43.541Z,5.40
2018-12-26T02:25:25.010Z,5.40
2018-12-26T02:30:59.133Z,5.40
2018-12-26T02:33:40.719Z,5.40
2018-12-26T02:36:22.108Z,5.40
2018-12-26T02:39:03.742Z,5.40
2018-12-26T02:41:44.455Z,5.30
2018-12-26T02:44:24.939Z,5.30
2018-12-26T02:47:06.235Z,5.30
2018-12-26T02:52:26.137Z,5.30
2018-12-26T02:55:06.969Z,5.30
2018-12-26T02:57:48.299Z,5.30
2018-12-26T03:00:29.695Z,5.30
2018-12-26T03:03:11.277Z,5.30
2018-12-26T03:05:52.032Z,5.30
2018-12-26T03:08:32.859Z,5.30
2018-12-26T03:11:13.582Z,5.30
2018-12-26T03:13:54.065Z,5.30
2018-12-26T03:16:34.664Z,5.30
2018-12-26T03:19:15.655Z,5.20
2018-12-26T03:21:57.062Z,5.30
2018-12-26T03:24:37.786Z,5.30
2018-12-26T03:27:19.038Z,5.30
2018-12-26T03:29:59.884Z,5.30
2018-12-26T03:32:40.620Z,5.30
2018-12-26T03:35:21.700Z,5.30
2018-12-26T03:38:02.478Z,5.30
2018-12-26T03:40:43.847Z,5.20
2018-12-26T03:43:25.348Z,5.30
2018-12-26T03:46:06.565Z,5.20
2018-12-26T03:48:47.507Z,5.20
2018-12-26T03:51:28.465Z,5.20
2018-12-26T03:54:09.904Z,5.20
2018-12-26T03:56:50.303Z,5.20
2018-12-26T03:59:31.650Z,5.20
2018-12-26T04:04:57.196Z,5.20
2018-12-26T04:07:38.599Z,5.20
2018-12-26T04:10:19.089Z,5.30
2018-12-26T04:13:00.029Z,5.20
2018-12-26T04:15:40.991Z,5.20
2018-12-26T04:18:21.543Z,5.20
2018-12-26T04:21:02.620Z,5.20
2018-12-26T04:23:44.634Z,5.20
2018-12-26T04:26:25.122Z,5.20
2018-12-26T04:31:48.899Z,5.20
2018-12-26T04:34:29.678Z,5.20
2018-12-26T04:37:10.902Z,5.20
2018-12-26T04:39:54.606Z,5.10
2018-12-26T04:42:35.866Z,5.10
2018-12-26T04:45:16.772Z,5.20
2018-12-26T04:47:57.615Z,5.10
2018-12-26T04:50:38.131Z,5.10
2018-12-26T04:53:19.224Z,5.10
2018-12-26T04:56:00.767Z,5.10
2018-12-26T04:58:44.469Z,5.10
2018-12-26T05:01:26.061Z,5.10
2018-12-26T05:04:06.456Z,5.10
2018-12-26T05:06:47.358Z,5.10
2018-12-26T05:09:28.311Z,5.10
2018-12-26T05:12:09.325Z,5.10
2018-12-26T05:14:50.652Z,5.10
2018-12-26T05:17:31.634Z,5.10
2018-12-26T05:20:13.018Z,5.10
2018-12-26T05:22:53.872Z,5.10
2018-12-26T05:25:35.048Z,5.10
2018-12-26T05:28:15.783Z,5.10
2018-12-26T05:30:56.238Z,5.10
2018-12-26T05:33:37.420Z,5.10
2018-12-26T05:36:18.784Z,5.10
2018-12-26T05:38:59.714Z,5.10
2018-12-26T05:41:40.750Z,5.10
2018-12-26T05:44:21.252Z,5.10
2018-12-26T05:47:02.342Z,5.10
2018-12-26T05:49:46.860Z,5.00
2018-12-26T05:52:27.617Z,5.00
2018-12-26T05:55:09.041Z,5.10
2018-12-26T05:57:50.732Z,5.00
2018-12-26T06:00:31.637Z,5.10
2018-12-26T06:03:12.832Z,5.00
2018-12-26T06:05:54.485Z,5.00
2018-12-26T06:08:36.076Z,5.00
2018-12-26T06:11:17.579Z,5.00
2018-12-26T06:13:58.191Z,5.00
2018-12-26T06:16:38.821Z,4.90
2018-12-26T06:19:19.511Z,4.90
2018-12-26T06:22:00.776Z,4.90
2018-12-26T06:24:41.321Z,4.90
2018-12-26T06:27:21.958Z,4.90
2018-12-26T06:30:03.229Z,4.90
2018-12-26T06:32:44.241Z,4.80
2018-12-26T06:35:25.021Z,4.80
2018-12-26T06:38:08.654Z,4.80
2018-12-26T06:40:49.977Z,4.80
2018-12-26T06:43:30.743Z,4.90
2018-12-26T06:46:11.598Z,4.80
2018-12-26T06:48:52.521Z,4.80
2018-12-26T06:51:33.210Z,4.80
2018-12-26T06:54:13.858Z,4.80
2018-12-26T06:56:55.026Z,4.80
2018-12-26T06:59:36.359Z,4.80
2018-12-26T07:02:17.349Z,4.80
2018-12-26T07:04:46.265Z,4.80
2018-12-26T07:07:34.467Z,4.80
2018-12-26T07:10:22.583Z,4.80
2018-12-26T07:13:03.505Z,4.70
2018-12-26T07:15:44.055Z,4.70
2018-12-26T07:18:25.550Z,4.70
2018-12-26T07:21:06.738Z,4.80
2018-12-26T07:23:48.200Z,4.70
2018-12-26T07:26:28.840Z,4.70
2018-12-26T07:32:00.351Z,4.70
2018-12-26T07:34:48.762Z,4.70
2018-12-26T07:37:36.934Z,4.70
2018-12-26T07:40:25.167Z,4.70
2018-12-26T07:43:05.775Z,4.70
2018-12-26T07:45:47.079Z,4.70
2018-12-26T07:48:29.045Z,4.70
2018-12-26T07:54:01.922Z,4.70
2018-12-26T07:56:42.715Z,4.70
2018-12-26T07:59:23.480Z,4.70
2018-12-26T08:02:04.964Z,4.70
2018-12-26T08:04:46.285Z,4.70
2018-12-26T08:07:27.275Z,4.70
2018-12-26T08:10:07.959Z,4.70
2018-12-26T08:12:48.679Z,4.70
2018-12-26T08:15:30.070Z,4.70
2018-12-26T08:18:10.977Z,4.70
2018-12-26T08:20:52.002Z,4.70
2018-12-26T08:23:33.482Z,4.70
2018-12-26T08:26:14.621Z,4.70
2018-12-26T08:28:55.091Z,4.70
2018-12-26T08:31:36.093Z,4.80
2018-12-26T08:34:16.996Z,4.70
2018-12-26T08:36:57.633Z,4.80
2018-12-26T08:39:38.085Z,4.80
2018-12-26T08:42:18.979Z,4.70
2018-12-26T08:44:59.626Z,4.80
2018-12-26T08:47:40.195Z,4.70
2018-12-26T08:50:21.162Z,4.70
2018-12-26T08:53:01.939Z,4.80
2018-12-26T08:55:42.898Z,4.70
2018-12-26T09:01:02.211Z,4.80
2018-12-26T09:03:43.070Z,4.70
2018-12-26T09:06:23.922Z,4.80
2018-12-26T09:09:04.899Z,4.70
2018-12-26T09:11:46.121Z,4.80
2018-12-26T09:14:27.158Z,4.70
2018-12-26T09:17:07.958Z,4.80
2018-12-26T09:19:49.085Z,4.70
2018-12-26T09:22:30.399Z,4.80
2018-12-26T09:25:11.819Z,4.80
2018-12-26T09:27:52.358Z,4.80
2018-12-26T09:30:33.083Z,4.80
2018-12-26T09:33:13.580Z,4.80
2018-12-26T09:35:54.026Z,4.80
2018-12-26T09:38:35.379Z,4.80
2018-12-26T09:41:16.250Z,4.80
2018-12-26T09:43:57.344Z,4.80
2018-12-26T09:46:38.936Z,4.80
2018-12-26T09:49:20.146Z,4.80
2018-12-26T09:52:01.498Z,4.90
2018-12-26T09:54:42.299Z,4.80
2018-12-26T09:57:22.871Z,4.90
2018-12-26T10:00:03.813Z,4.90
2018-12-26T10:02:44.881Z,4.80
2018-12-26T10:05:25.474Z,4.80
2018-12-26T10:08:06.349Z,4.80
2018-12-26T10:10:46.756Z,4.80
2018-12-26T10:13:27.217Z,4.90
2018-12-26T10:16:07.969Z,4.80
2018-12-26T10:18:48.882Z,4.80
2018-12-26T10:21:29.955Z,4.90
2018-12-26T10:24:10.753Z,4.80
2018-12-26T10:26:51.500Z,4.80
2018-12-26T10:29:32.115Z,4.80
2018-12-26T10:32:12.978Z,4.80
2018-12-26T10:34:53.697Z,4.80
2018-12-26T10:37:34.333Z,4.90
2018-12-26T10:40:15.109Z,4.80
2018-12-26T10:42:55.641Z,4.90
2018-12-26T10:45:36.695Z,4.80
2018-12-26T10:48:17.296Z,4.90
2018-12-26T10:50:58.113Z,4.90
2018-12-26T10:53:38.872Z,4.90
2018-12-26T10:56:19.862Z,4.90
2018-12-26T10:59:00.487Z,4.90
2018-12-26T11:01:41.241Z,4.90
2018-12-26T11:04:21.775Z,4.90
2018-12-26T11:07:03.204Z,4.90
2018-12-26T11:09:43.665Z,4.90
2018-12-26T11:12:25.159Z,4.90
2018-12-26T11:15:05.907Z,4.90
2018-12-26T11:17:46.959Z,4.90
2018-12-26T11:20:27.683Z,4.90
2018-12-26T11:23:08.798Z,5.00
2018-12-26T11:25:49.257Z,5.00
2018-12-26T11:28:29.899Z,5.00
2018-12-26T11:31:10.587Z,5.00
2018-12-26T11:33:51.665Z,5.00
2018-12-26T11:36:32.613Z,5.00
2018-12-26T11:39:13.897Z,5.00
2018-12-26T11:41:55.084Z,5.00
2018-12-26T11:44:35.947Z,5.00
2018-12-26T11:47:16.707Z,5.00
2018-12-26T11:49:57.479Z,5.00
2018-12-26T11:52:38.275Z,5.00
2018-12-26T11:55:18.809Z,5.00
2018-12-26T11:57:59.604Z,5.10
2018-12-26T12:00:40.220Z,5.10
2018-12-26T12:03:21.154Z,5.10
2018-12-26T12:06:01.603Z,5.10
2018-12-26T12:08:42.622Z,5.10
2018-12-26T12:11:11.855Z,5.10
2018-12-26T12:14:02.330Z,5.10
2018-12-26T12:16:43.489Z,5.10
2018-12-26T12:19:24.360Z,5.10
2018-12-26T12:22:04.901Z,5.10
2018-12-26T12:24:45.737Z,5.10
2018-12-26T12:27:26.619Z,5.10
2018-12-26T12:30:07.352Z,5.10
2018-12-26T12:32:48.155Z,5.10
2018-12-26T12:35:28.957Z,5.20
2018-12-26T12:38:10.378Z,5.20
2018-12-26T12:40:51.559Z,5.20
2018-12-26T12:43:33.042Z,5.20
2018-12-26T12:46:14.315Z,5.20
2018-12-26T12:48:54.806Z,5.20
2018-12-26T12:51:35.582Z,5.20
2018-12-26T12:54:16.305Z,5.20
2018-12-26T13:02:49.069Z,5.20
2018-12-26T13:05:30.518Z,5.20
2018-12-26T13:08:10.958Z,5.20
2018-12-26T13:10:51.794Z,5.20
2018-12-26T13:13:32.756Z,5.20
2018-12-26T13:16:13.690Z,5.20
2018-12-26T13:18:54.058Z,5.20
2018-12-26T13:21:34.821Z,5.20
2018-12-26T13:24:16.133Z,5.30
2018-12-26T13:26:56.707Z,5.30
2018-12-26T13:29:37.510Z,5.20
2018-12-26T13:32:17.969Z,5.30
2018-12-26T13:34:58.491Z,5.30
2018-12-26T13:37:39.297Z,5.30
2018-12-26T13:40:21.130Z,5.30
2018-12-26T13:43:04.874Z,5.30
2018-12-26T13:45:45.467Z,5.30
2018-12-26T13:48:26.202Z,5.30
2018-12-26T13:51:07.310Z,5.30
2018-12-26T13:53:48.202Z,5.30
2018-12-26T13:56:28.915Z,5.30
2018-12-26T13:59:10.249Z,5.30
2018-12-26T14:01:50.874Z,5.30
2018-12-26T14:04:31.670Z,5.30
2018-12-26T14:07:12.880Z,5.30
2018-12-26T14:09:54.125Z,5.30
2018-12-26T14:12:34.565Z,5.30
2018-12-26T14:15:15.553Z,5.30
2018-12-26T14:17:56.500Z,5.30
2018-12-26T14:20:37.377Z,5.30
2018-12-26T14:23:18.320Z,5.40
2018-12-26T14:25:59.350Z,5.40
2018-12-26T14:28:40.491Z,5.40
2018-12-26T14:31:20.993Z,5.30
2018-12-26T14:34:02.032Z,5.30
2018-12-26T14:36:42.596Z,5.40
2018-12-26T14:39:23.687Z,5.40
2018-12-26T14:42:04.255Z,5.40
2018-12-26T14:44:44.975Z,5.40
2018-12-26T14:47:25.785Z,5.40
2018-12-26T14:49:54.773Z,5.40
2018-12-26T14:52:42.849Z,5.40
2018-12-26T14:55:30.970Z,5.40
2018-12-26T14:58:11.750Z,5.40
2018-12-26T15:00:52.856Z,5.40
2018-12-26T15:03:33.932Z,5.50
2018-12-26T15:06:14.791Z,5.40
2018-12-26T15:08:55.320Z,5.40
2018-12-26T15:11:36.000Z,5.40
2018-12-26T15:14:16.730Z,5.50
2018-12-26T15:16:57.750Z,5.50
2018-12-26T15:19:38.442Z,5.50
2018-12-26T15:22:19.141Z,5.50
2018-12-26T15:25:00.577Z,5.50
2018-12-26T15:27:41.097Z,5.50
2018-12-26T15:30:28.599Z,5.50
2018-12-26T15:33:04.282Z,5.50
2018-12-26T15:35:45.356Z,5.50
2018-12-26T15:38:27.664Z,5.50
2018-12-26T15:41:08.842Z,5.50
2018-12-26T15:43:50.206Z,5.50
2018-12-26T15:46:31.313Z,5.50
2018-12-26T15:49:11.915Z,5.50
2018-12-26T15:51:55.441Z,5.60
2018-12-26T15:54:36.580Z,5.50
2018-12-26T15:57:17.480Z,5.50
2018-12-26T15:59:58.011Z,5.50
2018-12-26T16:02:39.359Z,5.60
2018-12-26T16:05:20.335Z,5.60
2018-12-26T16:08:01.292Z,5.60
2018-12-26T16:10:42.256Z,5.60
2018-12-26T16:13:23.229Z,5.60
2018-12-26T16:16:03.954Z,5.60
2018-12-26T16:18:44.733Z,5.60
2018-12-26T16:21:25.524Z,5.60
2018-12-26T16:24:06.347Z,5.60
2018-12-26T16:26:47.741Z,5.60
2018-12-26T16:29:28.897Z,5.60
2018-12-26T16:32:09.701Z,5.60
2018-12-26T16:34:50.701Z,5.60
2018-12-26T16:37:31.513Z,5.70
2018-12-26T16:40:12.307Z,5.70
2018-12-26T16:42:52.958Z,5.70
2018-12-26T16:45:33.905Z,5.70
2018-12-26T16:48:14.520Z,5.70
2018-12-26T16:50:55.437Z,5.70
2018-12-26T16:53:36.155Z,5.80
2018-12-26T16:56:17.218Z,5.70
2018-12-26T16:58:57.793Z,5.80
2018-12-26T17:01:38.694Z,5.80
2018-12-26T17:04:19.975Z,5.80
2018-12-26T17:07:01.350Z,5.80
2018-12-26T17:09:42.388Z,5.80
2018-12-26T17:12:23.181Z,5.80
2018-12-26T17:15:04.364Z,5.80
2018-12-26T17:17:45.650Z,5.90
2018-12-26T17:20:26.765Z,5.90
2018-12-26T17:23:08.096Z,5.90
2018-12-26T17:25:48.766Z,5.90
2018-12-26T17:28:29.275Z,5.90
2018-12-26T17:31:10.456Z,5.90
2018-12-26T17:33:52.219Z,5.90
2018-12-26T17:36:33.653Z,5.90
2018-12-26T17:39:15.096Z,5.90
2018-12-26T17:41:56.086Z,5.90
2018-12-26T17:47:29.380Z,6.00
2018-12-26T17:50:10.688Z,6.00
2018-12-26T17:52:51.811Z,6.00
2018-12-26T17:55:33.238Z,6.00
2018-12-26T17:58:13.782Z,6.00
2018-12-26T18:00:54.756Z,6.10
2018-12-26T18:03:36.086Z,6.10
2018-12-26T18:06:16.790Z,6.20
2018-12-26T18:08:57.833Z,6.20
2018-12-26T18:11:38.837Z,6.20
2018-12-26T18:14:19.808Z,6.20
2018-12-26T18:17:00.575Z,6.20
2018-12-26T18:19:41.258Z,6.20
2018-12-26T18:22:22.007Z,6.20
2018-12-26T18:25:02.619Z,6.20
2018-12-26T18:27:43.299Z,6.20
2018-12-26T18:30:24.715Z,6.20
2018-12-26T18:33:05.621Z,6.20
2018-12-26T18:35:46.169Z,6.20
2018-12-26T18:38:26.996Z,6.20
2018-12-26T18:41:07.734Z,6.20
2018-12-26T18:43:49.171Z,6.20
2018-12-26T18:46:30.369Z,6.20
2018-12-26T18:49:10.972Z,6.20
2018-12-26T18:51:51.552Z,6.20
2018-12-26T18:54:32.940Z,6.20
2018-12-26T18:57:13.792Z,6.20
2018-12-26T18:59:54.745Z,6.20
2018-12-26T19:02:35.191Z,6.20
2018-12-26T19:05:15.851Z,6.20
2018-12-26T19:07:57.390Z,6.20
2018-12-26T19:10:38.339Z,6.20
2018-12-26T19:13:19.120Z,6.20
2018-12-26T19:16:00.010Z,6.20
2018-12-26T19:18:40.654Z,6.20
2018-12-26T19:21:21.603Z,6.20
2018-12-26T19:24:02.613Z,6.20
2018-12-26T19:26:43.677Z,6.20
2018-12-26T19:29:24.562Z,6.20
2018-12-26T19:32:05.600Z,6.20
2018-12-26T19:34:46.543Z,6.20
2018-12-26T19:37:27.432Z,6.20
2018-12-26T19:40:08.919Z,6.20
2018-12-26T19:42:49.545Z,6.20
2018-12-26T19:45:31.172Z,6.20
2018-12-26T19:48:11.639Z,6.20
2018-12-26T19:50:52.850Z,6.20
2018-12-26T19:53:34.201Z,6.30
2018-12-26T19:56:14.767Z,6.20
2018-12-26T19:58:55.765Z,6.30
2018-12-26T20:01:36.222Z,6.30
2018-12-26T20:04:16.729Z,6.30
2018-12-26T20:06:57.746Z,6.30
2018-12-26T20:09:38.709Z,6.30
2018-12-26T20:12:19.765Z,6.30
2018-12-26T20:15:00.408Z,6.40
2018-12-26T20:17:41.269Z,6.40
2018-12-26T20:20:22.078Z,6.40
2018-12-26T20:23:02.928Z,6.40
2018-12-26T20:25:43.872Z,6.40
2018-12-26T20:28:24.863Z,6.40
2018-12-26T20:31:05.542Z,6.40
2018-12-26T20:33:46.221Z,6.40
2018-12-26T20:36:27.507Z,6.40
2018-12-26T20:39:08.833Z,6.40
2018-12-26T20:41:49.917Z,6.40
2018-12-26T20:44:31.315Z,6.40
2018-12-26T20:47:12.309Z,6.40
2018-12-26T20:49:53.716Z,6.40
2018-12-26T20:52:34.652Z,6.40
2018-12-26T20:55:15.342Z,6.40
2018-12-26T20:57:56.277Z,6.40
2018-12-26T21:00:36.935Z,6.40
2018-12-26T21:03:17.557Z,6.40
2018-12-26T21:05:58.560Z,6.40
2018-12-26T21:08:40.390Z,6.50
2018-12-26T21:11:22.000Z,6.40
2018-12-26T21:14:03.117Z,6.40
2018-12-26T21:16:44.412Z,6.40
2018-12-26T21:19:25.014Z,6.40
2018-12-26T21:22:06.169Z,6.40
2018-12-26T21:24:47.169Z,6.50
2018-12-26T21:27:27.709Z,6.50
2018-12-26T21:30:08.411Z,6.40
2018-12-26T21:32:49.766Z,6.40
2018-12-26T21:35:30.622Z,6.50
2018-12-26T21:38:11.183Z,6.50
2018-12-26T21:40:52.116Z,6.40
2018-12-26T21:43:33.209Z,6.40
2018-12-26T21:46:13.889Z,6.40
2018-12-26T21:48:54.927Z,6.50
2018-12-26T21:54:28.248Z,6.50
2018-12-26T21:57:09.803Z,6.50
2018-12-26T21:59:51.063Z,6.50
2018-12-26T22:02:32.022Z,6.50
2018-12-26T22:05:13.174Z,6.50
2018-12-26T22:07:54.170Z,6.50
2018-12-26T22:13:26.282Z,6.50
2018-12-26T22:16:06.863Z,6.50
2018-12-26T22:18:47.668Z,6.50
2018-12-26T22:21:28.412Z,6.50
2018-12-26T22:24:09.043Z,6.50
2018-12-26T22:26:52.036Z,6.60
2018-12-26T22:29:33.547Z,6.50
2018-12-26T22:32:14.446Z,6.50
2018-12-26T22:34:54.973Z,6.50
2018-12-26T22:37:35.744Z,6.50
2018-12-26T22:40:16.265Z,6.50
2018-12-26T22:42:56.863Z,6.50
2018-12-26T22:45:43.879Z,6.50
2018-12-26T22:48:19.730Z,6.50
2018-12-26T22:51:00.259Z,6.50
2018-12-26T22:53:40.776Z,6.40
2018-12-26T22:56:21.374Z,6.40
2018-12-26T22:59:02.130Z,6.40
2018-12-26T23:01:43.226Z,6.40
2018-12-26T23:04:23.985Z,6.30
2018-12-26T23:07:04.650Z,6.30
2018-12-26T23:09:45.582Z,6.30
2018-12-26T23:12:26.236Z,6.30
2018-12-26T23:15:07.401Z,6.30
2018-12-26T23:17:48.132Z,6.20
2018-12-26T23:20:29.099Z,6.20
2018-12-26T23:23:10.453Z,6.30
2018-12-26T23:25:51.394Z,6.30
2018-12-26T23:28:32.159Z,6.20
2018-12-26T23:31:12.828Z,6.20
2018-12-26T23:33:53.597Z,6.30
2018-12-26T23:36:34.883Z,6.20
2018-12-26T23:39:15.352Z,6.20
2018-12-26T23:41:56.092Z,6.20
2018-12-26T23:44:37.280Z,6.20
2018-12-26T23:47:18.254Z,6.20
2018-12-26T23:49:59.162Z,6.10
2018-12-26T23:52:39.778Z,6.10
2018-12-26T23:55:20.695Z,6.20
2018-12-26T23:58:01.197Z,6.10
